createdAt,value
2019-03-23T00:00:22.323Z,52.80
2019-03-23T00:05:39.288Z,53.00
2019-03-23T00:10:56.072Z,52.90
2019-03-23T00:16:13.000Z,52.80
2019-03-23T00:21:30.624Z,53.00
2019-03-23T00:26:47.592Z,53.00
2019-03-23T00:32:03.989Z,53.10
2019-03-23T00:37:20.655Z,53.20
2019-03-23T00:42:37.370Z,53.20
2019-03-23T00:47:53.792Z,53.40
2019-03-23T00:53:10.462Z,53.30
2019-03-23T00:58:27.087Z,53.40
2019-03-23T01:03:43.691Z,53.40
2019-03-23T01:09:00.379Z,53.50
2019-03-23T01:14:18.481Z,53.60
2019-03-23T01:19:35.255Z,53.60
2019-03-23T01:24:51.917Z,53.70
2019-03-23T01:30:10.420Z,53.80
2019-03-23T01:35:26.874Z,53.90
2019-03-23T01:40:43.553Z,53.80
2019-03-23T01:45:59.994Z,53.80
2019-03-23T01:51:16.583Z,54.00
2019-03-23T01:56:33.366Z,54.00
2019-03-23T02:01:50.288Z,54.20
2019-03-23T02:07:13.836Z,54.30
2019-03-23T02:12:24.855Z,54.30
2019-03-23T02:17:41.718Z,54.40
2019-03-23T02:22:58.139Z,54.40
2019-03-23T02:28:14.581Z,54.80
2019-03-23T02:33:31.037Z,54.60
2019-03-23T02:38:47.687Z,54.60
2019-03-23T02:44:04.359Z,54.80
2019-03-23T02:49:20.583Z,54.80
2019-03-23T02:54:37.045Z,54.90
2019-03-23T02:59:53.801Z,54.90
2019-03-23T03:05:10.917Z,54.90
2019-03-23T03:10:43.519Z,55.10
2019-03-23T03:16:00.042Z,55.20
2019-03-23T03:21:16.526Z,54.90
2019-03-23T03:26:33.245Z,55.20
2019-03-23T03:31:50.126Z,55.30
2019-03-23T03:37:06.664Z,55.30
2019-03-23T03:42:22.943Z,55.30
2019-03-23T03:47:41.385Z,55.40
2019-03-23T03:52:58.378Z,55.40
2019-03-23T03:58:14.892Z,55.40
2019-03-23T04:03:31.393Z,55.60
2019-03-23T04:08:50.391Z,55.60
2019-03-23T04:14:07.081Z,55.70
2019-03-23T04:19:23.474Z,55.80
2019-03-23T04:24:39.656Z,55.90
2019-03-23T04:29:56.120Z,56.10
2019-03-23T04:35:12.879Z,56.10
2019-03-23T04:40:29.520Z,56.30
2019-03-23T04:45:46.440Z,56.90
2019-03-23T04:51:02.769Z,56.40
2019-03-23T04:56:19.082Z,56.50
2019-03-23T05:01:35.508Z,56.60
2019-03-23T05:06:54.870Z,56.70
2019-03-23T05:12:11.278Z,56.70
2019-03-23T05:17:28.084Z,57.60
2019-03-23T05:22:44.838Z,57.70
2019-03-23T05:28:01.173Z,57.70
2019-03-23T05:33:17.642Z,57.80
2019-03-23T05:38:43.958Z,57.90
2019-03-23T05:43:54.102Z,58.00
2019-03-23T05:49:10.443Z,58.10
2019-03-23T05:54:26.968Z,58.20
2019-03-23T05:59:43.402Z,58.30
2019-03-23T06:04:59.876Z,58.40
2019-03-23T06:10:16.413Z,58.50
2019-03-23T06:15:32.889Z,58.50
2019-03-23T06:20:49.632Z,58.60
2019-03-23T06:26:06.478Z,58.80
2019-03-23T06:31:25.875Z,58.90
2019-03-23T06:36:42.506Z,58.90
2019-03-23T06:41:59.174Z,59.00
2019-03-23T06:47:15.808Z,59.20
2019-03-23T06:52:32.466Z,59.40
2019-03-23T06:57:48.888Z,59.50
2019-03-23T07:03:05.202Z,59.70
2019-03-23T07:08:31.543Z,60.80
2019-03-23T07:13:41.424Z,61.00
2019-03-23T07:18:58.185Z,61.30
2019-03-23T07:24:14.529Z,61.00
2019-03-23T07:29:30.653Z,61.20
2019-03-23T07:34:47.427Z,61.70
2019-03-23T07:40:03.862Z,62.20
2019-03-23T07:45:22.819Z,63.30
2019-03-23T07:50:39.499Z,62.90
2019-03-23T07:55:56.214Z,63.40
2019-03-23T08:01:13.131Z,64.70
2019-03-23T08:06:29.768Z,65.10
2019-03-23T08:11:46.725Z,65.00
2019-03-23T08:17:03.179Z,65.40
2019-03-23T08:22:19.955Z,65.50
2019-03-23T08:27:36.929Z,66.00
2019-03-23T08:32:53.627Z,66.50
2019-03-23T08:38:10.305Z,67.00
2019-03-23T08:43:26.917Z,67.50
2019-03-23T08:48:43.685Z,68.60
2019-03-23T08:54:01.712Z,68.50
2019-03-23T08:59:18.836Z,69.30
2019-03-23T09:04:36.442Z,69.80
2019-03-23T09:09:59.103Z,70.60
2019-03-23T09:15:13.707Z,71.50
2019-03-23T09:20:30.773Z,72.10
2019-03-23T09:25:47.805Z,72.80
2019-03-23T09:31:05.286Z,72.40
2019-03-23T09:36:23.458Z,72.90
2019-03-23T09:41:47.309Z,73.20
2019-03-23T09:47:03.970Z,73.60
2019-03-23T09:52:20.523Z,73.80
2019-03-23T09:57:36.853Z,74.00
2019-03-23T10:02:55.753Z,74.10
2019-03-23T10:08:20.535Z,74.10
2019-03-23T10:14:00.568Z,74.00
2019-03-23T10:19:38.996Z,74.00
2019-03-23T10:24:57.352Z,74.10
2019-03-23T10:30:14.627Z,74.10
2019-03-23T10:35:31.447Z,74.20
2019-03-23T10:40:47.987Z,73.80
2019-03-23T10:46:04.828Z,73.40
2019-03-23T10:51:22.515Z,73.20
2019-03-23T10:56:39.247Z,72.10
2019-03-23T11:01:56.038Z,71.90
2019-03-23T11:07:12.585Z,71.80
2019-03-23T11:12:29.055Z,71.70
2019-03-23T11:17:47.897Z,71.80
2019-03-23T11:23:04.702Z,72.10
2019-03-23T11:28:21.516Z,71.70
2019-03-23T11:33:41.005Z,71.60
2019-03-23T11:38:57.715Z,71.20
2019-03-23T11:44:13.891Z,70.20
2019-03-23T11:49:31.078Z,70.50
2019-03-23T11:54:47.674Z,70.70
2019-03-23T12:00:04.684Z,70.50
2019-03-23T12:05:21.493Z,70.10
2019-03-23T12:10:37.959Z,69.30
2019-03-23T12:15:54.517Z,68.40
2019-03-23T12:21:11.010Z,67.10
2019-03-23T12:26:27.359Z,66.90
2019-03-23T12:31:44.210Z,66.60
2019-03-23T12:37:01.122Z,66.20
2019-03-23T12:42:17.809Z,64.70
2019-03-23T12:47:34.878Z,64.30
2019-03-23T12:52:51.486Z,64.20
2019-03-23T12:58:08.371Z,64.30
2019-03-23T13:03:25.162Z,64.00
2019-03-23T13:08:41.514Z,64.40
2019-03-23T13:13:58.458Z,63.70
2019-03-23T13:19:14.963Z,63.50
2019-03-23T13:24:31.697Z,63.00
2019-03-23T13:29:48.645Z,62.60
2019-03-23T13:35:06.395Z,61.70
2019-03-23T13:40:23.346Z,61.20
2019-03-23T13:45:42.739Z,60.80
2019-03-23T13:50:58.512Z,60.60
2019-03-23T13:56:15.161Z,59.80
2019-03-23T14:01:32.152Z,59.30
2019-03-23T14:06:48.913Z,58.90
2019-03-23T14:12:05.453Z,58.60
2019-03-23T14:17:21.915Z,58.00
2019-03-23T14:22:39.953Z,57.60
2019-03-23T14:27:56.742Z,57.30
2019-03-23T14:33:12.982Z,56.90
2019-03-23T14:38:29.788Z,56.30
2019-03-23T14:43:46.763Z,55.90
2019-03-23T14:49:03.502Z,55.50
2019-03-23T14:54:20.009Z,55.20
2019-03-23T14:59:36.851Z,55.10
2019-03-23T15:04:53.394Z,54.80
2019-03-23T15:10:11.618Z,54.50
2019-03-23T15:15:28.124Z,54.10
2019-03-23T15:20:45.232Z,53.80
2019-03-23T15:26:01.880Z,53.50
2019-03-23T15:31:18.444Z,53.30
2019-03-23T15:36:34.930Z,52.70
2019-03-23T15:41:54.003Z,52.40
2019-03-23T15:47:11.392Z,51.90
2019-03-23T15:52:29.615Z,51.70
2019-03-23T15:57:46.388Z,51.50
2019-03-23T16:03:06.240Z,50.80
2019-03-23T16:08:23.412Z,50.70
2019-03-23T16:13:39.970Z,50.30
2019-03-23T16:18:56.541Z,49.70
2019-03-23T16:24:13.656Z,49.80
2019-03-23T16:29:30.170Z,49.10
2019-03-23T16:34:46.684Z,49.00
2019-03-23T16:40:03.259Z,48.90
2019-03-23T16:45:20.177Z,48.70
2019-03-23T16:50:36.694Z,48.70
2019-03-23T16:55:53.452Z,48.60
2019-03-23T17:01:09.916Z,48.80
2019-03-23T17:07:19.342Z,48.80
2019-03-23T17:12:55.847Z,48.90
2019-03-23T17:18:27.594Z,49.00
2019-03-23T17:25:16.339Z,49.00
2019-03-23T17:30:06.350Z,49.10
2019-03-23T17:35:27.448Z,49.20
2019-03-23T17:40:44.025Z,45.90
2019-03-23T17:46:06.389Z,45.40
2019-03-23T17:51:20.876Z,45.80
2019-03-23T17:56:40.539Z,46.00
2019-03-23T18:02:00.347Z,46.10
2019-03-23T18:07:22.804Z,46.00
2019-03-23T18:12:39.573Z,46.60
2019-03-23T18:18:05.990Z,46.40
2019-03-23T18:23:22.895Z,46.90
2019-03-23T18:28:39.442Z,47.30
2019-03-23T18:33:56.258Z,47.60
2019-03-23T18:39:16.810Z,48.20
2019-03-23T18:44:37.060Z,48.80
2019-03-23T18:49:53.837Z,49.00
2019-03-23T19:00:55.844Z,49.30
2019-03-23T19:06:17.189Z,49.60
2019-03-23T19:11:37.782Z,49.80
2019-03-23T19:16:52.456Z,50.20
2019-03-23T19:22:09.202Z,50.50
2019-03-23T19:27:27.332Z,50.80
2019-03-23T19:32:44.636Z,51.20
2019-03-23T19:38:02.456Z,51.20
2019-03-23T19:43:36.638Z,51.20
2019-03-23T19:48:53.508Z,51.40
2019-03-23T19:54:10.358Z,51.60
2019-03-23T19:59:29.039Z,51.70
2019-03-23T20:04:51.064Z,51.70
2019-03-23T20:10:08.023Z,51.70
2019-03-23T20:15:24.769Z,52.00
2019-03-23T20:20:41.463Z,53.00
2019-03-23T20:25:58.212Z,53.50
2019-03-23T20:31:14.820Z,54.80
2019-03-23T20:36:31.344Z,55.40
2019-03-23T20:41:48.022Z,55.50
2019-03-23T20:47:04.951Z,55.50
2019-03-23T20:52:21.645Z,55.00
2019-03-23T20:57:38.603Z,54.40
2019-03-23T21:02:55.486Z,53.80
2019-03-23T21:08:12.268Z,53.20
2019-03-23T21:13:28.979Z,52.60
2019-03-23T21:18:45.684Z,52.00
2019-03-23T21:24:02.189Z,51.60
2019-03-23T21:29:19.085Z,51.70
2019-03-23T21:34:36.029Z,50.60
2019-03-23T21:39:52.579Z,50.20
2019-03-23T21:45:15.691Z,49.90
2019-03-23T21:50:50.316Z,49.60
2019-03-23T21:56:14.666Z,49.40
2019-03-23T22:01:34.913Z,49.10
2019-03-23T22:06:53.987Z,49.10
2019-03-23T22:12:15.028Z,48.70
2019-03-23T22:17:31.771Z,48.70
2019-03-23T22:22:55.639Z,48.50
2019-03-23T22:28:28.450Z,48.40
2019-03-23T22:33:45.150Z,48.30
2019-03-23T22:39:06.840Z,48.20
2019-03-23T22:44:23.267Z,48.20
2019-03-23T22:49:45.194Z,48.00
2019-03-23T22:55:15.309Z,48.10
2019-03-23T23:00:46.679Z,48.00
2019-03-23T23:06:06.836Z,47.90
2019-03-23T23:11:23.498Z,47.90
2019-03-23T23:16:40.327Z,47.90
2019-03-23T23:21:57.267Z,47.90
2019-03-23T23:27:19.522Z,47.80
2019-03-23T23:32:36.636Z,47.80
2019-03-23T23:37:53.457Z,47.80
2019-03-23T23:43:15.490Z,47.80
2019-03-23T23:48:33.311Z,47.80
2019-03-23T23:53:50.083Z,47.90
2019-03-23T23:59:09.303Z,47.90
